Terminal Aerodrome Forecast
Issued by NWS

Home | Current Version | Previous Version | Graphics & Text | Print | Product List | Glossary On
Versions: 1 2 3 4 5 6 7 8 9 10 11 12 13 14 15
000
FTUS43 KICT 012329
TAFSLN
TAF
KSLN 012329Z 0200/0224 15008KT P6SM SCT120
     FM021100 17010KT P6SM VCSH OVC080
     FM021600 18015G22KT P6SM SCT100=

USA.gov is the U.S. government's official web portal to all federal, state and local government web resources and services.